Time;durP1;ratioP1;P1;durP2;ratioP2;P2;SDS_P1;SDS_P2;PMS_P1;PMS_P2;Temp;Humidity;BMP_temperature;BMP_pressure;BME280_temperature;BME280_humidity;BME280_pressure;Samples;Min_cycle;Max_cycle;Signal;HPM_P1;HPM_P2
2021/06/17 00:00:33;;;;;;;8.40;3.70;;;;;;;23.73;52.22;99443.41;2221693;40;20049;-85
2021/06/17 00:02:05;;;;;;;6.35;3.30;;;;;;;23.65;51.95;99444.66;2221533;40;20034;-86
2021/06/17 00:03:37;;;;;;;6.85;3.63;;;;;;;23.59;50.78;99439.34;2221901;40;20044;-85
2021/06/17 00:05:12;;;;;;;6.38;3.30;;;;;;;23.47;50.51;99434.75;2221843;40;20133;-86
2021/06/17 00:06:44;;;;;;;5.70;3.30;;;;;;;23.34;50.38;99438.63;2228093;40;20037;-87
2021/06/17 00:08:16;;;;;;;11.27;3.33;;;;;;;23.29;50.27;99430.34;2223203;40;20034;-82
2021/06/17 00:09:47;;;;;;;6.28;3.22;;;;;;;23.28;49.78;99436.88;2221701;40;20021;-81
2021/06/17 00:11:19;;;;;;;5.38;3.03;;;;;;;23.26;50.12;99430.84;2221210;40;20312;-79
2021/06/17 00:12:52;;;;;;;5.25;3.63;;;;;;;23.26;50.09;99435.44;2227033;40;20052;-80
2021/06/17 00:14:24;;;;;;;6.03;3.13;;;;;;;23.25;49.94;99431.06;2221511;40;20061;-80
2021/06/17 00:15:58;;;;;;;4.97;2.95;;;;;;;23.21;49.67;99433.44;2221553;40;20036;-79
2021/06/17 00:17:29;;;;;;;7.35;2.95;;;;;;;23.16;50.17;99439.59;2220909;40;20036;-79
2021/06/17 00:19:02;;;;;;;5.30;3.08;;;;;;;23.16;49.95;99441.50;2220113;40;20057;-80
2021/06/17 00:20:34;;;;;;;4.70;3.20;;;;;;;23.25;49.71;99429.19;2226586;40;20048;-79
2021/06/17 00:22:08;;;;;;;6.18;3.55;;;;;;;23.28;49.96;99423.25;2221334;40;20264;-79
2021/06/17 00:23:38;;;;;;;5.00;2.90;;;;;;;23.32;50.10;99429.84;2221912;40;20037;-81
2021/06/17 00:25:12;;;;;;;6.07;3.05;;;;;;;23.36;50.12;99432.91;2220817;40;20052;-78
2021/06/17 00:26:43;;;;;;;5.43;2.95;;;;;;;23.40;50.31;99427.81;2222800;40;20333;-79
2021/06/17 00:28:17;;;;;;;5.32;3.47;;;;;;;23.44;51.51;99429.78;2222697;40;20033;-81
2021/06/17 00:29:47;;;;;;;7.05;4.38;;;;;;;23.40;52.93;99434.09;2222801;40;20053;-79
2021/06/17 00:31:19;;;;;;;8.82;3.60;;;;;;;23.35;53.71;99433.97;2220284;40;20049;-80
2021/06/17 00:32:52;;;;;;;7.95;4.55;;;;;;;23.28;54.46;99436.03;2222705;40;20044;-80
2021/06/17 00:34:23;;;;;;;6.22;4.00;;;;;;;23.23;54.72;99436.78;2217600;40;20050;-79
2021/06/17 00:35:55;;;;;;;6.68;4.07;;;;;;;23.23;54.81;99436.78;2216027;40;20060;-79
2021/06/17 00:37:26;;;;;;;7.18;4.35;;;;;;;23.20;55.29;99431.78;2215581;40;20052;-79
2021/06/17 00:38:58;;;;;;;11.98;5.50;;;;;;;23.16;55.47;99434.16;2211234;40;20042;-80
2021/06/17 00:40:31;;;;;;;8.68;4.57;;;;;;;23.09;56.18;99430.75;2212973;40;20030;-80
2021/06/17 00:42:02;;;;;;;9.38;4.40;;;;;;;23.02;56.34;99435.53;2213254;40;20425;-80
2021/06/17 00:43:35;;;;;;;7.75;4.40;;;;;;;22.90;56.76;99435.56;2214134;40;20038;-81
2021/06/17 00:45:11;;;;;;;7.43;4.53;;;;;;;22.70;57.10;99430.50;2216198;40;20126;-82
2021/06/17 00:46:43;;;;;;;8.18;4.60;;;;;;;22.54;57.51;99434.78;2216057;40;20042;-82
2021/06/17 00:48:17;;;;;;;8.27;4.32;;;;;;;22.41;57.77;99438.59;2216275;40;20410;-79
2021/06/17 00:49:48;;;;;;;7.15;4.20;;;;;;;22.29;58.30;99444.00;2219646;40;20041;-82
2021/06/17 00:51:20;;;;;;;9.05;4.22;;;;;;;22.23;58.35;99434.88;2212611;40;20034;-80
2021/06/17 00:52:52;;;;;;;10.43;4.53;;;;;;;22.15;58.87;99435.25;2208618;40;20034;-79
2021/06/17 00:54:32;;;;;;;8.13;4.20;;;;;;;22.09;59.07;99439.72;2214908;40;20026;-79
2021/06/17 00:56:05;;;;;;;8.77;4.57;;;;;;;22.04;59.14;99441.50;2210374;40;20081;-80
2021/06/17 00:57:38;;;;;;;9.27;4.20;;;;;;;21.99;58.85;99446.84;2214648;40;20014;-81
2021/06/17 00:59:11;;;;;;;9.27;4.45;;;;;;;21.94;59.32;99448.34;2210298;40;20037;-79
2021/06/17 01:00:43;;;;;;;7.47;4.25;;;;;;;21.94;59.13;99432.03;2212699;40;20045;-80
2021/06/17 01:02:15;;;;;;;6.28;3.70;;;;;;;21.97;59.03;99431.56;2214729;40;20216;-81
2021/06/17 01:03:46;;;;;;;6.93;4.30;;;;;;;22.03;58.93;99437.97;2213431;40;20029;-82
2021/06/17 01:05:20;;;;;;;7.93;4.75;;;;;;;22.11;58.70;99436.75;2209970;40;20042;-80
2021/06/17 01:06:53;;;;;;;7.38;4.22;;;;;;;22.16;58.46;99438.78;2216674;40;20035;-79
2021/06/17 01:08:37;;;;;;;7.55;4.00;;;;;;;22.20;58.05;99429.09;2216048;40;20457;-80
2021/06/17 01:10:14;;;;;;;5.65;3.47;;;;;;;22.21;58.15;99433.47;2211648;40;20049;-80
2021/06/17 01:11:57;;;;;;;6.25;3.95;;;;;;;22.21;58.00;99439.72;2216907;40;20033;-80
2021/06/17 01:13:34;;;;;;;6.82;3.83;;;;;;;22.21;58.02;99439.72;2212642;40;20862;-79
2021/06/17 01:15:10;;;;;;;6.75;4.05;;;;;;;22.20;58.15;99431.81;2215336;40;20107;-80
2021/06/17 01:16:45;;;;;;;7.40;5.05;;;;;;;22.18;57.85;99434.78;2214423;40;20080;-82
2021/06/17 01:18:17;;;;;;;6.22;4.47;;;;;;;22.19;58.29;99432.88;2216409;40;20041;-79
2021/06/17 01:19:54;;;;;;;5.97;3.55;;;;;;;22.09;58.24;99426.13;2214052;40;20050;-80
2021/06/17 01:21:33;;;;;;;6.05;3.78;;;;;;;22.04;58.37;99427.91;2209931;40;20057;-84
2021/06/17 01:23:23;;;;;;;7.43;4.30;;;;;;;22.03;58.15;99418.06;2214104;40;20046;-80
2021/06/17 01:25:09;;;;;;;6.95;3.95;;;;;;;22.03;58.18;99418.91;2209549;40;20414;-80
2021/06/17 01:27:02;;;;;;;7.85;4.07;;;;;;;22.05;57.89;99415.94;2214252;40;20097;-81
2021/06/17 01:28:38;;;;;;;6.70;3.90;;;;;;;22.01;57.98;99414.78;2215368;40;20029;-80
2021/06/17 01:30:13;;;;;;;7.22;4.05;;;;;;;21.99;58.12;99411.47;2214975;40;20036;-79
2021/06/17 01:31:46;;;;;;;11.18;5.15;;;;;;;21.95;58.23;99413.81;2215481;40;20038;-80
2021/06/17 01:33:18;;;;;;;8.73;4.72;;;;;;;21.94;58.43;99404.00;2215589;40;20064;-80
2021/06/17 01:34:52;;;;;;;17.08;6.85;;;;;;;21.94;58.44;99401.28;2215614;40;20045;-81
2021/06/17 01:36:29;;;;;;;11.52;6.63;;;;;;;21.99;58.64;99400.56;2213248;40;20033;-80
2021/06/17 01:38:04;;;;;;;11.38;6.93;;;;;;;21.99;58.42;99400.56;2215185;40;20049;-79
2021/06/17 01:39:39;;;;;;;12.50;7.18;;;;;;;21.99;58.54;99397.84;2214181;40;20030;-79
2021/06/17 01:41:13;;;;;;;8.77;5.80;;;;;;;21.99;58.62;99406.84;2215856;40;20037;-80
2021/06/17 01:42:46;;;;;;;8.30;5.40;;;;;;;21.95;58.82;99392.88;2215465;40;20049;-79
2021/06/17 01:44:22;;;;;;;8.70;4.85;;;;;;;21.87;59.05;99389.69;2215574;40;20057;-80
2021/06/17 01:45:54;;;;;;;7.38;4.70;;;;;;;21.75;59.58;99393.22;2215626;40;20049;-80
2021/06/17 01:47:27;;;;;;;6.68;4.32;;;;;;;21.66;59.85;99381.84;2209529;40;20038;-79
2021/06/17 01:49:00;;;;;;;9.05;4.10;;;;;;;21.62;59.84;99399.72;2212962;40;20033;-79
2021/06/17 01:50:32;;;;;;;7.40;4.65;;;;;;;;;;2209156;40;20457;-79
2021/06/17 01:52:05;;;;;;;9.20;4.55;;;;;;;21.48;60.45;99395.50;2212828;40;20042;-80
2021/06/17 01:53:39;;;;;;;6.03;4.50;;;;;;;21.46;60.38;99397.59;2220655;40;20053;-80
2021/06/17 01:55:12;;;;;;;7.97;4.75;;;;;;;21.44;60.80;99397.03;2217474;40;20030;-79
2021/06/17 01:56:44;;;;;;;8.57;4.70;;;;;;;21.41;60.86;99394.78;2212981;40;20069;-80
2021/06/17 01:58:17;;;;;;;7.88;5.03;;;;;;;21.39;60.92;99396.88;2214858;40;20026;-80
2021/06/17 01:59:51;;;;;;;7.35;4.32;;;;;;;21.39;60.91;99397.72;2217179;40;20071;-79
2021/06/17 02:01:25;;;;;;;6.68;4.40;;;;;;;21.39;60.76;99391.44;2214872;40;20025;-80
2021/06/17 02:02:57;;;;;;;11.00;5.32;;;;;;;21.42;60.68;99396.44;2219564;40;20068;-79
2021/06/17 02:04:30;;;;;;;12.80;5.80;;;;;;;21.40;60.78;99396.63;2223129;40;20037;-80
2021/06/17 02:06:03;;;;;;;9.40;5.30;;;;;;;21.38;60.91;99396.06;2223911;40;20079;-80
2021/06/17 02:07:39;;;;;;;10.52;6.50;;;;;;;21.33;60.91;99394.03;2220809;40;20061;-79
2021/06/17 02:09:11;;;;;;;14.05;7.63;;;;;;;21.28;61.03;99393.91;2217214;40;20041;-80
2021/06/17 02:10:44;;;;;;;10.57;6.22;;;;;;;21.26;61.04;99404.16;2216243;40;20044;-79
2021/06/17 02:12:15;;;;;;;11.55;6.97;;;;;;;21.32;60.94;99403.25;2212969;40;20030;-79
2021/06/17 02:13:48;;;;;;;11.30;6.93;;;;;;;21.38;60.35;99403.38;2208900;40;20500;-80
2021/06/17 02:15:22;;;;;;;10.70;6.25;;;;;;;21.40;60.60;99395.81;2215066;40;20037;-81
2021/06/17 02:16:56;;;;;;;10.25;5.55;;;;;;;21.40;60.83;99398.53;2214899;40;20050;-79
2021/06/17 02:18:29;;;;;;;11.95;5.60;;;;;;;21.24;61.17;99395.44;2216440;40;20452;-79
2021/06/17 02:20:00;;;;;;;7.50;4.20;;;;;;;21.17;61.39;99398.25;2221838;40;20037;-79
2021/06/17 02:21:33;;;;;;;10.75;5.13;;;;;;;21.19;61.20;99395.28;2216481;40;20037;-79
2021/06/17 02:23:11;;;;;;;9.25;4.43;;;;;;;21.22;61.05;99407.56;2214898;40;20033;-79
2021/06/17 02:24:48;;;;;;;8.95;4.53;;;;;;;21.22;61.17;99397.53;2215770;40;20030;-80
2021/06/17 02:26:22;;;;;;;8.52;4.63;;;;;;;21.19;61.33;99400.72;2215277;40;20416;-79
2021/06/17 02:27:58;;;;;;;7.93;4.88;;;;;;;21.17;61.18;99411.81;2214527;40;20585;-82
2021/06/17 02:29:35;;;;;;;7.47;4.20;;;;;;;21.13;61.60;99407.91;2209938;40;20038;-80
2021/06/17 02:31:11;;;;;;;10.32;5.20;;;;;;;21.11;61.30;99407.28;2214740;40;20025;-79
2021/06/17 02:32:45;;;;;;;6.57;4.70;;;;;;;21.10;61.26;99410.25;2210334;40;20077;-79
2021/06/17 02:34:18;;;;;;;9.05;4.35;;;;;;;21.07;61.52;99418.84;2214983;40;20065;-80
2021/06/17 02:35:53;;;;;;;9.20;5.10;;;;;;;21.07;61.46;99406.09;2221991;40;20594;-79
2021/06/17 02:37:27;;;;;;;9.95;4.32;;;;;;;21.06;61.57;99414.50;2217926;40;20118;-79
2021/06/17 02:39:03;;;;;;;6.80;4.20;;;;;;;21.06;61.25;99417.22;2215077;40;20034;-81
2021/06/17 02:40:41;;;;;;;12.38;5.60;;;;;;;21.06;61.54;99426.19;2214424;40;20061;-79
2021/06/17 02:42:17;;;;;;;8.32;4.65;;;;;;;21.03;61.68;99422.03;2214133;40;20060;-79
2021/06/17 02:43:53;;;;;;;8.02;5.00;;;;;;;21.04;61.55;99426.41;2211507;40;20034;-79
2021/06/17 02:45:29;;;;;;;7.88;5.05;;;;;;;20.99;62.27;99426.25;2209536;40;20070;-78
2021/06/17 02:47:01;;;;;;;8.18;4.97;;;;;;;20.84;62.59;99429.38;2209608;40;20387;-79
2021/06/17 02:48:34;;;;;;;7.85;4.72;;;;;;;20.71;63.10;99441.19;2214922;40;20056;-79
2021/06/17 02:50:06;;;;;;;8.35;5.30;;;;;;;20.55;63.67;99439.91;2213879;40;20048;-79
2021/06/17 02:51:38;;;;;;;9.77;4.90;;;;;;;20.44;64.14;99450.69;2214738;40;20096;-80
2021/06/17 02:53:10;;;;;;;8.80;5.93;;;;;;;20.34;64.62;99446.59;2213679;40;20053;-78
2021/06/17 02:54:42;;;;;;;10.68;4.75;;;;;;;20.26;64.85;99450.41;2214103;40;20030;-79
2021/06/17 02:56:22;;;;;;;9.40;5.70;;;;;;;20.23;65.21;99444.59;2213183;40;20025;-79
2021/06/17 02:58:05;;;;;;;10.98;5.90;;;;;;;20.17;65.44;99453.66;2213957;40;20102;-79
2021/06/17 02:59:55;;;;;;;8.20;5.28;;;;;;;20.13;65.65;99449.69;2209356;40;20076;-78
2021/06/17 03:01:33;;;;;;;8.50;5.80;;;;;;;20.02;65.70;99443.13;2214688;40;20029;-80
2021/06/17 03:03:14;;;;;;;8.60;4.82;;;;;;;19.96;65.65;99444.84;2211366;40;20053;-80
2021/06/17 03:04:49;;;;;;;8.63;5.38;;;;;;;19.94;66.02;99438.78;2212529;40;20045;-79
2021/06/17 03:06:27;;;;;;;7.63;5.35;;;;;;;19.92;65.94;99438.22;2209567;40;20046;-79
2021/06/17 03:08:03;;;;;;;8.45;5.25;;;;;;;19.89;66.06;99439.47;2212227;40;20049;-80
2021/06/17 03:09:41;;;;;;;8.35;5.38;;;;;;;19.87;65.75;99444.31;2214811;40;20045;-79
2021/06/17 03:11:15;;;;;;;7.88;4.82;;;;;;;19.87;65.91;99451.59;2216163;40;20128;-80
2021/06/17 03:12:49;;;;;;;7.35;4.68;;;;;;;19.88;65.75;99440.53;2214391;40;20053;-80
2021/06/17 03:14:25;;;;;;;9.20;4.57;;;;;;;19.90;65.82;99441.13;2213518;40;20057;-79
2021/06/17 03:15:57;;;;;;;10.25;4.68;;;;;;;19.89;65.51;99442.16;2207752;40;20049;-80
2021/06/17 03:17:34;;;;;;;12.43;4.78;;;;;;;19.93;65.65;99448.84;2213340;40;20041;-80
2021/06/17 03:19:10;;;;;;;8.90;4.35;;;;;;;19.93;65.60;99446.13;2216587;40;20048;-80
2021/06/17 03:20:44;;;;;;;9.70;4.95;;;;;;;19.94;65.53;99446.94;2214555;40;20152;-79
2021/06/17 03:22:16;;;;;;;5.40;4.45;;;;;;;19.91;65.84;99448.22;2214056;40;20037;-80
2021/06/17 03:23:50;;;;;;;8.65;5.13;;;;;;;19.86;65.73;99453.47;2213609;40;20056;-80
2021/06/17 03:25:26;;;;;;;7.50;5.07;;;;;;;19.85;65.75;99453.66;2214236;40;20041;-80
2021/06/17 03:27:01;;;;;;;8.35;5.13;;;;;;;19.82;65.81;99451.41;2215034;40;20042;-80
2021/06/17 03:28:35;;;;;;;11.10;5.25;;;;;;;19.78;65.87;99453.72;2212990;40;20034;-81
2021/06/17 03:30:07;;;;;;;8.70;4.97;;;;;;;19.76;65.91;99453.94;2212752;40;20043;-80
2021/06/17 03:31:40;;;;;;;9.48;4.93;;;;;;;19.74;66.27;99458.72;2215843;40;20053;-79
2021/06/17 03:33:14;;;;;;;9.23;5.63;;;;;;;19.71;66.35;99459.19;2215982;40;20678;-80
2021/06/17 03:34:48;;;;;;;8.57;4.80;;;;;;;19.66;66.63;99458.19;2212653;40;20052;-81
2021/06/17 03:36:21;;;;;;;10.18;4.90;;;;;;;19.58;66.52;99464.69;2213845;40;20406;-80
2021/06/17 03:37:53;;;;;;;10.27;5.40;;;;;;;19.53;66.90;99462.63;2210780;40;20519;-82
2021/06/17 03:39:27;;;;;;;9.10;5.10;;;;;;;19.47;66.94;99468.94;2209954;40;20057;-79
2021/06/17 03:41:00;;;;;;;9.20;5.70;;;;;;;19.43;67.31;99473.97;2212886;40;20052;-79
2021/06/17 03:42:34;;;;;;;9.43;4.90;;;;;;;19.41;67.33;99472.53;2210720;40;20116;-79
2021/06/17 03:44:07;;;;;;;8.50;5.13;;;;;;;19.40;67.47;99474.38;2213597;40;20122;-79
2021/06/17 03:45:42;;;;;;;10.63;5.20;;;;;;;19.37;67.08;99485.66;2209673;40;20107;-79
2021/06/17 03:47:16;;;;;;;8.10;5.40;;;;;;;19.36;67.54;99488.59;2209501;40;20471;-81
2021/06/17 03:48:49;;;;;;;7.95;5.18;;;;;;;19.33;67.49;99490.66;2210619;40;20046;-82
2021/06/17 03:50:26;;;;;;;6.88;4.53;;;;;;;19.35;67.56;99493.19;2212972;40;20029;-81
2021/06/17 03:51:58;;;;;;;8.63;5.38;;;;;;;19.42;67.04;99491.25;2212536;40;20417;-80
2021/06/17 03:53:32;;;;;;;10.70;5.53;;;;;;;19.47;66.62;99499.56;2215673;40;20049;-85
2021/06/17 03:55:04;;;;;;;8.35;4.85;;;;;;;19.58;66.38;99486.38;2213667;40;20026;-83
2021/06/17 03:56:37;;;;;;;9.00;5.35;;;;;;;19.66;66.16;99488.81;2213806;40;20034;-85
2021/06/17 03:58:10;;;;;;;11.68;5.30;;;;;;;19.72;66.12;99500.69;2212834;40;20041;-84
2021/06/17 03:59:43;;;;;;;13.40;7.78;;;;;;;19.76;65.83;99494.59;2213407;40;20038;-85
2021/06/17 04:01:17;;;;;;;11.73;5.68;;;;;;;19.82;65.75;99497.50;2214044;40;20380;-85
2021/06/17 04:02:49;;;;;;;9.98;6.55;;;;;;;19.88;65.71;99493.94;2214115;40;20215;-85
2021/06/17 04:04:21;;;;;;;9.13;5.25;;;;;;;19.97;65.26;99494.50;2214341;40;20038;-86
2021/06/17 04:05:56;;;;;;;9.48;6.55;;;;;;;19.95;65.64;99492.00;2213141;40;20052;-83
2021/06/17 04:07:29;;;;;;;10.30;6.45;;;;;;;19.92;65.82;99487.03;2214701;40;20141;-85
2021/06/17 04:09:03;;;;;;;10.77;6.88;;;;;;;19.90;65.87;99489.94;2216446;40;20045;-84
2021/06/17 04:10:35;;;;;;;9.35;5.53;;;;;;;19.91;65.75;99482.66;2216588;40;20033;-83
2021/06/17 04:12:10;;;;;;;9.13;5.10;;;;;;;19.94;65.68;99484.91;2216488;40;20030;-84
2021/06/17 04:13:44;;;;;;;6.57;5.22;;;;;;;19.97;65.41;99478.22;2220465;40;20550;-84
2021/06/17 04:15:18;;;;;;;7.43;5.25;;;;;;;19.97;64.86;99481.75;2222621;40;20053;-85
2021/06/17 04:16:52;;;;;;;8.35;5.10;;;;;;;19.99;64.53;99476.97;2222728;40;20029;-83
2021/06/17 04:18:25;;;;;;;10.40;5.20;;;;;;;20.04;64.13;99479.00;2222649;40;20044;-84
2021/06/17 04:19:59;;;;;;;10.05;5.32;;;;;;;19.99;64.09;99476.97;2222568;40;20030;-84
2021/06/17 04:21:35;;;;;;;11.45;5.10;;;;;;;20.03;63.79;99482.78;2216576;40;20026;-83
2021/06/17 04:23:07;;;;;;;7.85;5.60;;;;;;;20.04;63.71;99489.84;2216215;40;20033;-83
2021/06/17 04:24:43;;;;;;;9.07;5.18;;;;;;;20.07;63.10;99490.25;2213410;40;20656;-84
2021/06/17 04:26:19;;;;;;;9.07;5.85;;;;;;;20.14;62.90;99500.19;2213261;40;20038;-83
2021/06/17 04:27:53;;;;;;;8.98;5.43;;;;;;;20.12;62.90;99497.72;2213348;40;20034;-85
2021/06/17 04:29:26;;;;;;;7.53;4.88;;;;;;;20.16;62.74;99492.69;2216114;40;20032;-85
2021/06/17 04:30:59;;;;;;;6.93;4.65;;;;;;;20.22;62.47;99492.63;2218871;40;20044;-87
2021/06/17 04:32:31;;;;;;;7.32;4.72;;;;;;;20.31;62.14;99495.06;2222649;40;20029;-86
2021/06/17 04:34:04;;;;;;;7.95;4.70;;;;;;;20.34;62.33;99490.00;2222392;40;20025;-85
2021/06/17 04:35:36;;;;;;;7.00;4.10;;;;;;;20.42;61.93;99492.44;2222490;40;20029;-85
2021/06/17 04:37:13;;;;;;;7.63;4.03;;;;;;;20.51;61.64;99495.72;2222514;40;20028;-86
2021/06/17 04:38:47;;;;;;;6.60;3.97;;;;;;;20.59;61.32;99502.75;2216406;40;20030;-85
2021/06/17 04:40:21;;;;;;;7.25;4.20;;;;;;;20.64;61.33;99500.19;2221852;40;20041;-85
2021/06/17 04:41:53;;;;;;;7.57;4.18;;;;;;;20.69;61.14;99503.03;2222631;40;20043;-85
2021/06/17 04:43:25;;;;;;;7.78;5.05;;;;;;;20.73;60.77;99498.84;2225110;40;20028;-85
2021/06/17 04:44:58;;;;;;;7.95;4.38;;;;;;;20.75;61.08;99501.34;2228767;40;20037;-86
2021/06/17 04:46:32;;;;;;;7.25;4.22;;;;;;;20.76;60.82;99497.56;2228876;40;20032;-85
2021/06/17 04:48:09;;;;;;;6.45;4.38;;;;;;;20.81;60.38;99505.03;2216411;40;20045;-86
2021/06/17 04:49:40;;;;;;;9.15;4.07;;;;;;;20.89;60.21;99499.31;2216423;40;20041;-84
2021/06/17 04:51:16;;;;;;;10.23;4.78;;;;;;;20.96;59.92;99501.97;2216349;40;20748;-85
2021/06/17 04:53:17;;;;;;;9.27;4.30;;;;;;;20.96;60.00;99502.81;2222355;40;20602;-85
2021/06/17 04:54:48;;;;;;;8.68;4.50;;;;;;;20.99;60.04;99505.03;2214079;40;20033;-85
2021/06/17 04:56:20;;;;;;;7.18;4.30;;;;;;;21.04;59.99;99509.81;2216542;40;20033;-85
2021/06/17 04:57:51;;;;;;;6.60;4.07;;;;;;;21.08;60.11;99507.47;2216574;40;20061;-86
2021/06/17 04:59:23;;;;;;;10.32;5.82;;;;;;;21.11;59.98;99505.13;2223385;40;20021;-84
2021/06/17 05:00:55;;;;;;;9.68;5.88;;;;;;;21.13;60.19;99507.63;2228278;40;20033;-84
2021/06/17 05:02:27;;;;;;;14.07;6.00;;;;;;;21.10;60.40;99508.06;2225641;40;20045;-85
2021/06/17 05:03:58;;;;;;;9.65;5.78;;;;;;;20.98;60.43;99511.53;2222394;40;20044;-85
2021/06/17 05:05:30;;;;;;;12.32;7.20;;;;;;;20.91;61.05;99510.78;2222517;40;20044;-83
2021/06/17 05:07:22;;;;;;;10.32;6.90;;;;;;;20.85;61.20;99507.09;2216299;40;20034;-84
2021/06/17 05:10:50;;;;;;;;;;;;;;;20.89;61.06;99512.88;2216942;40;20026;-86
2021/06/17 05:12:22;;;;;;;10.77;7.00;;;;;;;20.98;60.89;99505.28;2216111;40;19945;-85
2021/06/17 05:13:54;;;;;;;13.57;7.03;;;;;;;21.01;60.64;99511.09;2214206;40;20461;-84
2021/06/17 05:15:25;;;;;;;9.13;5.90;;;;;;;21.04;60.68;99505.22;2213284;40;20042;-85
2021/06/17 05:16:57;;;;;;;10.43;6.10;;;;;;;21.12;60.41;99517.66;2213723;40;20034;-85
2021/06/17 05:18:29;;;;;;;10.32;6.32;;;;;;;21.20;60.33;99511.09;2214099;40;20458;-85
2021/06/17 05:20:01;;;;;;;7.38;5.40;;;;;;;21.32;60.34;99511.97;2213654;40;20031;-85
2021/06/17 05:21:33;;;;;;;10.88;5.63;;;;;;;21.44;60.18;99508.50;2213507;40;20045;-85
2021/06/17 05:23:05;;;;;;;11.77;5.95;;;;;;;21.52;59.77;99510.91;2213519;40;20108;-86
2021/06/17 05:24:38;;;;;;;13.60;6.05;;;;;;;21.59;59.68;99503.50;2213247;40;20087;-84
2021/06/17 05:26:10;;;;;;;12.07;5.20;;;;;;;21.65;59.31;99499.84;2213332;40;20083;-85
2021/06/17 05:27:41;;;;;;;15.43;6.35;;;;;;;21.74;59.21;99492.19;2213426;40;20398;-84
2021/06/17 05:29:13;;;;;;;17.27;7.05;;;;;;;21.81;59.02;99494.81;2213120;40;20062;-84
2021/06/17 05:30:44;;;;;;;10.07;5.50;;;;;;;21.86;59.11;99497.66;2213189;40;20037;-84
2021/06/17 05:32:17;;;;;;;10.20;5.60;;;;;;;21.91;59.17;99491.53;2213108;40;20061;-84
2021/06/17 05:33:49;;;;;;;14.73;6.50;;;;;;;21.91;58.78;99489.66;2212790;40;20030;-85
2021/06/17 05:35:19;;;;;;;13.18;7.97;;;;;;;21.88;58.52;99498.28;2213695;40;20037;-83
2021/06/17 05:36:51;;;;;;;8.45;5.85;;;;;;;21.84;58.47;99493.53;2219674;40;20033;-86
2021/06/17 05:38:24;;;;;;;10.23;5.82;;;;;;;21.91;58.52;99497.81;2222375;40;20037;-85
2021/06/17 05:39:57;;;;;;;11.02;6.03;;;;;;;21.99;58.09;99491.19;2222335;40;20040;-86
2021/06/17 05:41:29;;;;;;;9.80;6.22;;;;;;;22.02;57.89;99492.59;2225590;40;20025;-84
2021/06/17 05:43:00;;;;;;;10.02;6.00;;;;;;;22.06;57.92;99491.09;2216148;40;20037;-86
2021/06/17 05:44:31;;;;;;;13.68;6.57;;;;;;;22.11;57.48;99483.88;2216450;40;20045;-85
2021/06/17 05:46:03;;;;;;;12.07;6.35;;;;;;;22.19;57.44;99488.16;2216338;40;20037;-85
2021/06/17 05:47:36;;;;;;;11.82;6.50;;;;;;;22.23;57.48;99492.06;2216216;40;20098;-85
2021/06/17 05:49:08;;;;;;;9.30;6.18;;;;;;;22.31;57.47;99487.31;2202743;40;20066;-85
2021/06/17 05:50:41;;;;;;;12.40;6.18;;;;;;;22.33;57.30;99494.19;2212179;40;20464;-86
2021/06/17 05:52:12;;;;;;;10.90;6.10;;;;;;;22.41;56.87;99503.94;2216132;40;20030;-85
2021/06/17 05:53:45;;;;;;;15.18;6.05;;;;;;;22.49;56.76;99498.13;2216242;40;20034;-85
2021/06/17 05:55:17;;;;;;;17.45;6.38;;;;;;;22.56;56.55;99495.28;2216103;40;20042;-85
2021/06/17 05:56:49;;;;;;;9.80;5.22;;;;;;;22.58;56.46;99499.41;2216283;40;20037;-85
2021/06/17 05:58:21;;;;;;;12.18;6.50;;;;;;;22.63;56.37;99487.00;2216164;40;20045;-85
2021/06/17 05:59:52;;;;;;;11.18;6.20;;;;;;;22.69;56.02;99491.47;2216147;40;20042;-85
2021/06/17 06:01:24;;;;;;;12.23;6.93;;;;;;;22.76;55.71;99508.56;2219257;40;20028;-86
2021/06/17 06:02:55;;;;;;;15.57;6.97;;;;;;;22.81;55.29;99497.75;2222386;40;20032;-85
2021/06/17 06:04:26;;;;;;;15.00;6.30;;;;;;;22.84;54.78;99497.28;2209249;40;23188;-85
2021/06/17 06:05:58;;;;;;;14.80;6.30;;;;;;;22.88;54.67;99495.72;2218105;40;20033;-85
2021/06/17 06:07:30;;;;;;;7.35;5.03;;;;;;;22.97;54.59;99498.91;2209302;40;20092;-85
2021/06/17 06:09:02;;;;;;;12.45;5.00;;;;;;;23.03;54.21;99491.69;2197036;40;20035;-86
2021/06/17 06:10:35;;;;;;;9.32;5.07;;;;;;;23.09;54.08;99489.91;2185284;40;20035;-84
2021/06/17 06:12:10;;;;;;;8.50;4.88;;;;;;;23.13;53.59;99486.44;2186868;40;20035;-84
2021/06/17 06:13:42;;;;;;;11.75;5.22;;;;;;;23.23;53.63;99490.47;2188782;40;20218;-85
2021/06/17 06:15:14;;;;;;;13.50;5.40;;;;;;;23.27;53.53;99497.09;2190773;40;20020;-86
2021/06/17 06:16:47;;;;;;;11.20;5.53;;;;;;;23.28;52.76;99504.19;2190906;40;20031;-85
2021/06/17 06:18:19;;;;;;;6.80;4.30;;;;;;;23.31;52.67;99503.72;2190968;40;20036;-85
2021/06/17 06:19:50;;;;;;;9.38;4.80;;;;;;;23.36;52.43;99506.53;2190727;40;20056;-86
2021/06/17 06:21:22;;;;;;;14.55;4.97;;;;;;;23.39;52.23;99503.34;2190858;40;20028;-85
2021/06/17 06:22:54;;;;;;;11.52;5.05;;;;;;;23.45;52.00;99505.09;2190711;40;20040;-86
2021/06/17 06:24:25;;;;;;;9.50;4.35;;;;;;;23.48;51.81;99503.75;2173140;40;20029;-85
2021/06/17 06:25:59;;;;;;;8.02;4.07;;;;;;;23.53;51.50;99504.69;2175270;40;20033;-85
2021/06/17 06:27:30;;;;;;;9.60;4.85;;;;;;;23.59;50.99;99505.63;2173174;41;20061;-85
2021/06/17 06:29:02;;;;;;;12.73;4.75;;;;;;;23.64;51.33;99502.16;2173059;41;20036;-83
2021/06/17 06:30:34;;;;;;;14.05;4.70;;;;;;;23.67;51.35;99509.88;2173112;41;20014;-86
2021/06/17 06:32:08;;;;;;;10.80;4.60;;;;;;;23.71;51.17;99499.28;2165260;41;20069;-85
2021/06/17 06:33:40;;;;;;;18.48;5.30;;;;;;;23.76;51.03;99505.66;2175357;40;20024;-85
2021/06/17 06:35:12;;;;;;;10.82;4.85;;;;;;;23.81;50.27;99503.00;2173595;40;20096;-86
2021/06/17 06:36:43;;;;;;;11.75;4.82;;;;;;;23.84;49.90;99494.34;2187069;40;20031;-85
2021/06/17 06:38:15;;;;;;;8.85;4.65;;;;;;;23.90;50.01;99494.44;2177933;40;20036;-82
2021/06/17 06:39:47;;;;;;;8.38;4.63;;;;;;;23.97;49.93;99497.88;2179924;40;20043;-84
2021/06/17 06:41:20;;;;;;;10.10;5.20;;;;;;;24.04;49.59;99504.00;2203559;40;20034;-85
2021/06/17 06:42:52;;;;;;;8.48;4.82;;;;;;;24.11;49.42;99501.91;2201933;40;20390;-85
2021/06/17 06:44:24;;;;;;;11.18;5.32;;;;;;;24.18;49.40;99506.41;2204699;40;20038;-85
2021/06/17 06:45:55;;;;;;;14.68;5.22;;;;;;;24.26;48.80;99504.06;2204946;40;20037;-85
2021/06/17 06:47:27;;;;;;;9.85;4.68;;;;;;;24.33;48.93;99501.19;2203037;40;20778;-85
2021/06/17 06:48:59;;;;;;;11.07;4.72;;;;;;;24.47;49.02;99500.84;2204654;40;20306;-86
2021/06/17 06:50:31;;;;;;;11.98;4.32;;;;;;;24.59;48.74;99507.03;2192705;40;20046;-85
2021/06/17 06:52:04;;;;;;;11.07;5.18;;;;;;;24.73;48.77;99502.06;2192842;40;20047;-86
2021/06/17 06:53:35;;;;;;;8.32;5.00;;;;;;;24.83;48.10;99502.22;2198493;40;20042;-85
2021/06/17 06:55:07;;;;;;;14.02;6.85;;;;;;;24.96;47.97;99505.66;2188041;40;20039;-86
2021/06/17 06:56:40;;;;;;;9.88;5.22;;;;;;;25.04;47.84;99507.94;2196923;40;20038;-83
2021/06/17 06:58:13;;;;;;;15.05;4.38;;;;;;;25.14;48.17;99508.09;2198750;40;21107;-83
2021/06/17 06:59:45;;;;;;;14.25;5.50;;;;;;;25.26;47.63;99498.94;2207859;40;20041;-83
2021/06/17 07:01:16;;;;;;;10.27;5.13;;;;;;;25.34;47.35;99496.53;2211683;40;20042;-82
2021/06/17 07:02:48;;;;;;;11.13;5.00;;;;;;;25.44;47.20;99509.56;2212373;40;20061;-83
2021/06/17 07:04:20;;;;;;;13.60;6.00;;;;;;;25.54;46.83;99506.94;2210658;40;20045;-82
2021/06/17 07:05:51;;;;;;;12.25;5.55;;;;;;;25.60;46.99;99505.06;2216435;40;20021;-83
2021/06/17 07:07:23;;;;;;;16.20;4.85;;;;;;;25.69;46.48;99508.16;2209113;40;20651;-84
2021/06/17 07:08:55;;;;;;;13.27;4.43;;;;;;;25.78;46.67;99511.28;2211067;40;20045;-85
2021/06/17 07:10:27;;;;;;;10.48;4.97;;;;;;;25.89;46.55;99513.00;2196940;40;20036;-82
2021/06/17 07:12:02;;;;;;;8.18;4.35;;;;;;;26.02;46.04;99511.78;2188841;40;20032;-83
2021/06/17 07:13:33;;;;;;;15.35;5.28;;;;;;;26.13;45.65;99512.72;2178512;41;20051;-81
2021/06/17 07:15:06;;;;;;;10.80;5.13;;;;;;;26.25;45.54;99516.13;2187379;40;20071;-82
2021/06/17 07:16:38;;;;;;;7.45;4.40;;;;;;;26.38;45.18;99522.22;2185997;40;20082;-85
2021/06/17 07:18:09;;;;;;;16.90;4.70;;;;;;;26.49;44.63;99515.72;2178872;40;20029;-82
2021/06/17 07:19:41;;;;;;;14.38;5.43;;;;;;;26.55;44.32;99509.19;2178563;40;20033;-83
2021/06/17 07:21:15;;;;;;;17.58;5.20;;;;;;;26.66;43.99;99514.72;2174751;41;20544;-84